nws-alerts: Checking more than four warning/county codes can delay the loading of your pages. You should use a cron job to get the data.
EllijayWeather Station Historical Data
Daily Summary for November 29, 2018 Units:  English    Metric   Both
Daily Weekly Monthly Yearly Custom
  High: Low: Average:
Temperature: 44.8 °F 24.3 °F 34.9 °F
Dew Point: 28.4 °F 16.7 °F 22.6 °F
Humidity: 78% 46% 62%
Wind Speed: 0.0mph 0.0mph 0mph
Wind Gust: 0.0mph - -
Wind- - North
Pressure: 30.27 in 30.16 in -
Precipitation: 0.05 in    
Historical Graphs
 
 
Tabular Data for November 29, 2018
Time Temperature Dew Point Pressure Wind Wind Speed Wind Gust Humidity Rainfall Rate (Hourly) solar
00:04 27.9 °F 21.9 °F 30.22 in Calm     78% 0.00 in meteobridge W/m2
00:09 27.9 °F 21.9 °F 30.22 in Calm     78% 0.00 in meteobridge W/m2
00:14 27.7 °F 21.7 °F 30.23 in Calm     78% 0.00 in meteobridge W/m2
00:19 27.7 °F 21.7 °F 30.21 in Calm     78% 0.00 in meteobridge W/m2
00:24 27.5 °F 21.6 °F 30.22 in Calm     78% 0.00 in meteobridge W/m2
00:29 27.5 °F 21.6 °F 30.22 in Calm     78% 0.00 in meteobridge W/m2
00:34 27.5 °F 21.6 °F 30.22 in Calm     78% 0.00 in meteobridge W/m2
00:39 27.3 °F 21.4 °F 30.23 in Calm     78% 0.00 in meteobridge W/m2
00:44 27.3 °F 21.4 °F 30.24 in Calm     78% 0.00 in meteobridge W/m2
00:49 27.5 °F 21.6 °F 30.23 in Calm     78% 0.00 in meteobridge W/m2
00:54 27.5 °F 21.6 °F 30.23 in Calm     78% 0.00 in meteobridge W/m2
00:59 27.3 °F 21.4 °F 30.22 in Calm     78% 0.00 in meteobridge W/m2
01:04 27.3 °F 21.4 °F 30.22 in Calm     78% 0.00 in meteobridge W/m2
01:09 27.3 °F 21.4 °F 30.23 in Calm     78% 0.00 in meteobridge W/m2
01:14 27.1 °F 21.2 °F 30.23 in Calm     78% 0.00 in meteobridge W/m2
01:19 27.1 °F 21.2 °F 30.23 in Calm     78% 0.00 in meteobridge W/m2
01:24 27.1 °F 21.2 °F 30.23 in Calm     78% 0.00 in meteobridge W/m2
01:29 27.1 °F 21.2 °F 30.23 in Calm     78% 0.00 in meteobridge W/m2
01:34 27.1 °F 21.2 °F 30.22 in Calm     78% 0.00 in meteobridge W/m2
01:39 27.0 °F 21.0 °F 30.22 in Calm     78% 0.00 in meteobridge W/m2
01:44 27.0 °F 21.0 °F 30.22 in Calm     78% 0.00 in meteobridge W/m2
01:49 27.0 °F 21.0 °F 30.23 in Calm     78% 0.00 in meteobridge W/m2
01:54 26.8 °F 20.8 °F 30.23 in Calm     78% 0.00 in meteobridge W/m2
01:59 26.8 °F 20.8 °F 30.22 in Calm     78% 0.00 in meteobridge W/m2
02:04 26.6 °F 20.7 °F 30.22 in Calm     78% 0.00 in meteobridge W/m2
02:09 26.6 °F 20.3 °F 30.22 in Calm     77% 0.00 in meteobridge W/m2
02:14 26.4 °F 20.1 °F 30.22 in Calm     77% 0.00 in meteobridge W/m2
02:19 26.4 °F 20.5 °F 30.22 in Calm     78% 0.00 in meteobridge W/m2
02:24 26.2 °F 19.9 °F 30.23 in Calm     77% 0.00 in meteobridge W/m2
02:29 26.2 °F 19.9 °F 30.22 in Calm     77% 0.00 in meteobridge W/m2
02:34 26.2 °F 19.9 °F 30.22 in Calm     77% 0.00 in meteobridge W/m2
02:39 26.2 °F 19.9 °F 30.22 in Calm     77% 0.00 in meteobridge W/m2
02:44 26.1 °F 19.8 °F 30.23 in Calm     77% 0.00 in meteobridge W/m2
02:49 26.2 °F 19.9 °F 30.24 in Calm     77% 0.00 in meteobridge W/m2
02:54 26.1 °F 19.8 °F 30.23 in Calm     77% 0.00 in meteobridge W/m2
02:59 26.1 °F 19.8 °F 30.24 in Calm     77% 0.00 in meteobridge W/m2
03:04 26.1 °F 19.8 °F 30.24 in Calm     77% 0.00 in meteobridge W/m2
03:09 26.1 °F 19.8 °F 30.23 in Calm     77% 0.00 in meteobridge W/m2
03:14 26.1 °F 19.8 °F 30.23 in Calm     77% 0.00 in meteobridge W/m2
03:19 25.9 °F 19.8 °F 30.23 in Calm     77% 0.00 in meteobridge W/m2
03:24 25.9 °F 19.8 °F 30.23 in Calm     77% 0.00 in meteobridge W/m2
03:29 25.9 °F 19.8 °F 30.23 in Calm     77% 0.00 in meteobridge W/m2
03:34 25.7 °F 19.6 °F 30.23 in Calm     77% 0.00 in meteobridge W/m2
03:39 25.5 °F 19.4 °F 30.24 in Calm     77% 0.00 in meteobridge W/m2
03:44 25.5 °F 19.4 °F 30.24 in Calm     77% 0.00 in meteobridge W/m2
03:49 25.5 °F 19.4 °F 30.24 in Calm     77% 0.00 in meteobridge W/m2
03:54 25.3 °F 19.2 °F 30.24 in Calm     77% 0.00 in meteobridge W/m2
03:59 25.3 °F 18.9 °F 30.24 in Calm     76% 0.00 in meteobridge W/m2
04:04 25.2 °F 19.0 °F 30.24 in Calm     77% 0.00 in meteobridge W/m2
04:09 25.2 °F 18.7 °F 30.24 in Calm     76% 0.00 in meteobridge W/m2
04:14 25.2 °F 18.7 °F 30.24 in Calm     76% 0.00 in meteobridge W/m2
04:19 25.0 °F 18.5 °F 30.24 in Calm     76% 0.00 in meteobridge W/m2
04:24 25.0 °F 18.5 °F 30.24 in Calm     76% 0.00 in meteobridge W/m2
04:29 25.0 °F 18.5 °F 30.24 in Calm     76% 0.00 in meteobridge W/m2
04:34 24.8 °F 18.3 °F 30.24 in Calm     76% 0.00 in meteobridge W/m2
04:39 24.6 °F 18.1 °F 30.24 in Calm     76% 0.00 in meteobridge W/m2
04:44 24.6 °F 18.1 °F 30.24 in Calm     76% 0.00 in meteobridge W/m2
04:49 24.6 °F 18.1 °F 30.23 in Calm     76% 0.00 in meteobridge W/m2
04:54 24.4 °F 17.6 °F 30.23 in Calm     75% 0.00 in meteobridge W/m2
04:59 24.4 °F 17.6 °F 30.23 in Calm     75% 0.00 in meteobridge W/m2
05:04 24.4 °F 17.6 °F 30.23 in Calm     75% 0.00 in meteobridge W/m2
05:09 24.4 °F 17.6 °F 30.23 in Calm     75% 0.00 in meteobridge W/m2
05:14 24.4 °F 17.6 °F 30.23 in Calm     75% 0.00 in meteobridge W/m2
05:19 24.4 °F 17.4 °F 30.23 in Calm     74% 0.00 in meteobridge W/m2
05:24 24.4 °F 17.4 °F 30.22 in Calm     74% 0.00 in meteobridge W/m2
05:29 24.4 °F 17.4 °F 30.22 in Calm     74% 0.00 in meteobridge W/m2
05:34 24.6 °F 17.6 °F 30.23 in Calm     74% 0.00 in meteobridge W/m2
05:39 24.6 °F 17.6 °F 30.23 in Calm     74% 0.00 in meteobridge W/m2
05:44 24.6 °F 17.6 °F 30.23 in Calm     74% 0.00 in meteobridge W/m2
05:49 24.6 °F 17.6 °F 30.23 in Calm     74% 0.00 in meteobridge W/m2
05:54 24.6 °F 17.6 °F 30.24 in Calm     74% 0.00 in meteobridge W/m2
05:59 24.6 °F 17.6 °F 30.24 in Calm     74% 0.00 in meteobridge W/m2
06:04 24.6 °F 17.6 °F 30.24 in Calm     74% 0.00 in meteobridge W/m2
06:09 24.4 °F 17.4 °F 30.24 in Calm     74% 0.00 in meteobridge W/m2
06:14 24.6 °F 17.6 °F 30.24 in Calm     74% 0.00 in meteobridge W/m2
06:19 24.4 °F 17.4 °F 30.25 in Calm     74% 0.00 in meteobridge W/m2
06:24 24.4 °F 17.4 °F 30.25 in Calm     74% 0.00 in meteobridge W/m2
06:29 24.4 °F 17.4 °F 30.25 in Calm     74% 0.00 in meteobridge W/m2
06:34 24.4 °F 17.4 °F 30.25 in Calm     74% 0.00 in meteobridge W/m2
06:39 24.6 °F 17.6 °F 30.25 in Calm     74% 0.00 in meteobridge W/m2
06:44 24.6 °F 17.6 °F 30.25 in Calm     74% 0.00 in meteobridge W/m2
06:49 24.4 °F 17.4 °F 30.26 in Calm     74% 0.00 in meteobridge W/m2
06:54 24.4 °F 17.4 °F 30.25 in Calm     74% 0.00 in meteobridge W/m2
06:59 24.4 °F 17.4 °F 30.25 in Calm     74% 0.00 in meteobridge W/m2
07:04 24.4 °F 17.4 °F 30.24 in Calm     74% 0.00 in meteobridge W/m2
07:09 24.3 °F 17.2 °F 30.25 in Calm     74% 0.00 in meteobridge W/m2
07:14 24.3 °F 17.2 °F 30.25 in Calm     74% 0.00 in meteobridge W/m2
07:19 24.3 °F 17.2 °F 30.25 in Calm     74% 0.00 in meteobridge W/m2
07:24 24.3 °F 16.9 °F 30.25 in Calm     73% 0.00 in meteobridge W/m2
07:29 24.3 °F 16.9 °F 30.26 in Calm     73% 0.00 in meteobridge W/m2
07:34 24.4 °F 17.1 °F 30.25 in Calm     73% 0.00 in meteobridge W/m2
07:39 24.4 °F 17.1 °F 30.25 in Calm     73% 0.00 in meteobridge W/m2
07:44 24.4 °F 17.1 °F 30.25 in Calm     73% 0.00 in meteobridge W/m2
07:49 24.4 °F 16.7 °F 30.26 in Calm     72% 0.00 in meteobridge W/m2
07:54 24.6 °F 16.9 °F 30.26 in Calm     72% 0.00 in meteobridge W/m2
07:59 24.8 °F 17.1 °F 30.26 in Calm     72% 0.00 in meteobridge W/m2
08:04 25.0 °F 17.2 °F 30.26 in Calm     72% 0.00 in meteobridge W/m2
08:09 25.2 °F 17.4 °F 30.25 in Calm     72% 0.00 in meteobridge W/m2
08:14 25.3 °F 17.2 °F 30.25 in Calm     71% 0.00 in meteobridge W/m2
08:19 25.5 °F 17.4 °F 30.26 in Calm     71% 0.00 in meteobridge W/m2
08:24 25.9 °F 17.8 °F 30.26 in Calm     71% 0.00 in meteobridge W/m2
08:29 26.1 °F 17.6 °F 30.26 in Calm     70% 0.00 in meteobridge W/m2
08:34 26.4 °F 18.0 °F 30.25 in Calm     70% 0.00 in meteobridge W/m2
08:39 27.0 °F 18.1 °F 30.25 in Calm     69% 0.00 in meteobridge W/m2
08:44 27.7 °F 18.9 °F 30.25 in Calm     69% 0.00 in meteobridge W/m2
08:49 28.0 °F 19.6 °F 30.25 in Calm     70% 0.00 in meteobridge W/m2
08:54 28.8 °F 20.3 °F 30.25 in Calm     70% 0.00 in meteobridge W/m2
08:59 29.3 °F 21.4 °F 30.25 in Calm     72% 0.00 in meteobridge W/m2
09:04 29.7 °F 22.1 °F 30.25 in Calm     73% 0.00 in meteobridge W/m2
09:09 30.2 °F 23.0 °F 30.24 in Calm     74% 0.00 in meteobridge W/m2
09:14 30.7 °F 24.1 °F 30.24 in Calm     76% 0.00 in meteobridge W/m2
09:19 30.9 °F 24.3 °F 30.24 in Calm     76% 0.00 in meteobridge W/m2
09:24 31.5 °F 25.2 °F 30.25 in Calm     77% 0.00 in meteobridge W/m2
09:29 31.6 °F 25.3 °F 30.26 in Calm     77% 0.00 in meteobridge W/m2
09:34 32.2 °F 25.5 °F 30.25 in Calm     76% 0.00 in meteobridge W/m2
09:39 32.4 °F 25.7 °F 30.26 in Calm     76% 0.00 in meteobridge W/m2
09:44 32.5 °F 26.1 °F 30.26 in Calm     77% 0.00 in meteobridge W/m2
09:49 32.5 °F 26.1 °F 30.26 in Calm     77% 0.00 in meteobridge W/m2
09:54 32.7 °F 26.2 °F 30.26 in Calm     77% 0.00 in meteobridge W/m2
09:59 33.1 °F 26.6 °F 30.26 in Calm     77% 0.00 in meteobridge W/m2
10:04 33.1 °F 26.6 °F 30.26 in Calm     77% 0.00 in meteobridge W/m2
10:09 33.3 °F 26.8 °F 30.26 in Calm     77% 0.00 in meteobridge W/m2
10:14 33.3 °F 26.8 °F 30.26 in Calm     77% 0.00 in meteobridge W/m2
10:19 33.4 °F 27.0 °F 30.26 in Calm     77% 0.00 in meteobridge W/m2
10:24 33.4 °F 27.0 °F 30.27 in Calm     77% 0.00 in meteobridge W/m2
10:29 33.6 °F 27.1 °F 30.26 in Calm     77% 0.00 in meteobridge W/m2
10:34 34.0 °F 27.5 °F 30.26 in Calm     77% 0.00 in meteobridge W/m2
10:39 34.2 °F 27.7 °F 30.26 in Calm     77% 0.00 in meteobridge W/m2
10:44 34.3 °F 27.9 °F 30.27 in Calm     77% 0.00 in meteobridge W/m2
10:49 34.5 °F 28.0 °F 30.27 in Calm     77% 0.00 in meteobridge W/m2
10:54 34.5 °F 28.0 °F 30.27 in Calm     77% 0.00 in meteobridge W/m2
10:59 34.9 °F 28.4 °F 30.27 in Calm     77% 0.00 in meteobridge W/m2
11:04 34.9 °F 28.4 °F 30.26 in Calm     77% 0.00 in meteobridge W/m2
11:09 35.1 °F 28.2 °F 30.26 in Calm     76% 0.00 in meteobridge W/m2
11:14 35.1 °F 27.9 °F 30.26 in Calm     75% 0.00 in meteobridge W/m2
11:19 35.2 °F 27.9 °F 30.25 in Calm     74% 0.00 in meteobridge W/m2
11:24 35.2 °F 27.1 °F 30.25 in Calm     72% 0.00 in meteobridge W/m2
11:29 35.2 °F 26.8 °F 30.25 in Calm     71% 0.00 in meteobridge W/m2
11:34 35.2 °F 26.4 °F 30.25 in Calm     70% 0.00 in meteobridge W/m2
11:39 35.4 °F 26.2 °F 30.24 in Calm     69% 0.00 in meteobridge W/m2
11:44 35.4 °F 25.9 °F 30.24 in Calm     68% 0.00 in meteobridge W/m2
11:49 35.6 °F 25.3 °F 30.24 in Calm     66% 0.00 in meteobridge W/m2
11:54 35.8 °F 25.2 °F 30.24 in Calm     65% 0.00 in meteobridge W/m2
11:59 36.0 °F 25.0 °F 30.24 in Calm     64% 0.00 in meteobridge W/m2
12:04 36.0 °F 24.6 °F 30.23 in Calm     63% 0.00 in meteobridge W/m2
12:09 36.1 °F 24.8 °F 30.23 in Calm     63% 0.01 in meteobridge W/m2
12:14 36.1 °F 24.4 °F 30.23 in Calm     62% 0.02 in meteobridge W/m2
12:19 36.1 °F 24.4 °F 30.22 in Calm     62% 0.03 in meteobridge W/m2
12:24 36.3 °F 24.1 °F 30.22 in Calm     61% 0.03 in meteobridge W/m2
12:29 36.3 °F 23.7 °F 30.22 in Calm     60% 0.03 in meteobridge W/m2
12:34 36.7 °F 24.1 °F 30.22 in Calm     60% 0.03 in meteobridge W/m2
12:39 36.7 °F 23.7 °F 30.22 in Calm     59% 0.03 in meteobridge W/m2
12:44 36.9 °F 23.5 °F 30.22 in Calm     58% 0.03 in meteobridge W/m2
12:49 37.0 °F 23.7 °F 30.21 in Calm     58% 0.03 in meteobridge W/m2
12:54 37.0 °F 23.2 °F 30.21 in Calm     57% 0.03 in meteobridge W/m2
12:59 37.2 °F 23.4 °F 30.21 in Calm     57% 0.03 in meteobridge W/m2
13:04 37.4 °F 23.2 °F 30.20 in Calm     56% 0.02 in meteobridge W/m2
13:09 37.8 °F 23.0 °F 30.20 in Calm     55% 0.02 in meteobridge W/m2
13:14 37.9 °F 22.8 °F 30.20 in Calm     54% 0.01 in meteobridge W/m2
13:19 38.1 °F 23.0 °F 30.19 in Calm     54% 0.00 in meteobridge W/m2
13:24 38.3 °F 23.2 °F 30.19 in Calm     54% 0.00 in meteobridge W/m2
13:29 38.5 °F 23.4 °F 30.19 in Calm     54% 0.00 in meteobridge W/m2
13:34 38.7 °F 23.0 °F 30.19 in Calm     53% 0.00 in meteobridge W/m2
13:39 39.0 °F 23.4 °F 30.19 in Calm     53% 0.00 in meteobridge W/m2
13:44 39.2 °F 23.0 °F 30.18 in Calm     52% 0.00 in meteobridge W/m2
13:49 39.4 °F 23.2 °F 30.19 in Calm     52% 0.00 in meteobridge W/m2
13:54 39.6 °F 23.4 °F 30.19 in Calm     52% 0.00 in meteobridge W/m2
13:59 39.7 °F 23.2 °F 30.18 in Calm     51% 0.00 in meteobridge W/m2
14:04 39.9 °F 23.2 °F 30.18 in Calm     51% 0.00 in meteobridge W/m2
14:09 40.1 °F 23.4 °F 30.18 in Calm     51% 0.00 in meteobridge W/m2
14:14 40.3 °F 23.5 °F 30.18 in Calm     51% 0.00 in meteobridge W/m2
14:19 40.6 °F 23.5 °F 30.19 in Calm     50% 0.00 in meteobridge W/m2
14:24 40.8 °F 23.5 °F 30.19 in Calm     50% 0.00 in meteobridge W/m2
14:29 41.2 °F 23.9 °F 30.18 in Calm     50% 0.00 in meteobridge W/m2
14:34 41.4 °F 24.1 °F 30.18 in Calm     50% 0.00 in meteobridge W/m2
14:39 41.4 °F 24.1 °F 30.18 in Calm     50% 0.00 in meteobridge W/m2
14:44 41.5 °F 23.7 °F 30.18 in Calm     49% 0.00 in meteobridge W/m2
14:49 41.7 °F 23.9 °F 30.18 in Calm     49% 0.00 in meteobridge W/m2
14:54 41.9 °F 24.1 °F 30.18 in Calm     49% 0.00 in meteobridge W/m2
14:59 42.1 °F 24.3 °F 30.18 in Calm     49% 0.00 in meteobridge W/m2
15:04 42.1 °F 24.3 °F 30.18 in Calm     49% 0.00 in meteobridge W/m2
15:09 42.3 °F 24.4 °F 30.17 in Calm     49% 0.00 in meteobridge W/m2
15:14 42.3 °F 24.4 °F 30.17 in Calm     49% 0.00 in meteobridge W/m2
15:19 42.4 °F 24.6 °F 30.17 in Calm     49% 0.00 in meteobridge W/m2
15:24 42.6 °F 24.3 °F 30.17 in Calm     48% 0.00 in meteobridge W/m2
15:29 42.8 °F 24.4 °F 30.17 in Calm     48% 0.00 in meteobridge W/m2
15:34 42.8 °F 24.4 °F 30.17 in Calm     48% 0.00 in meteobridge W/m2
15:39 43.0 °F 24.6 °F 30.17 in Calm     48% 0.00 in meteobridge W/m2
15:44 43.0 °F 24.6 °F 30.17 in Calm     48% 0.00 in meteobridge W/m2
15:49 43.0 °F 24.6 °F 30.17 in Calm     48% 0.01 in meteobridge W/m2
15:54 43.0 °F 24.6 °F 30.16 in Calm     48% 0.01 in meteobridge W/m2
15:59 43.0 °F 24.6 °F 30.17 in Calm     48% 0.01 in meteobridge W/m2
16:04 43.0 °F 24.6 °F 30.17 in Calm     48% 0.01 in meteobridge W/m2
16:09 42.8 °F 24.4 °F 30.16 in Calm     48% 0.01 in meteobridge W/m2
16:14 42.8 °F 25.0 °F 30.16 in Calm     49% 0.01 in meteobridge W/m2
16:19 42.6 °F 24.8 °F 30.16 in Calm     49% 0.01 in meteobridge W/m2
16:24 42.6 °F 24.8 °F 30.16 in Calm     49% 0.01 in meteobridge W/m2
16:29 42.6 °F 24.8 °F 30.17 in Calm     49% 0.01 in meteobridge W/m2
16:34 42.6 °F 24.3 °F 30.17 in Calm     48% 0.01 in meteobridge W/m2
16:39 42.6 °F 24.3 °F 30.17 in Calm     48% 0.01 in meteobridge W/m2
16:44 42.6 °F 24.3 °F 30.17 in Calm     48% 0.01 in meteobridge W/m2
16:49 42.6 °F 24.3 °F 30.16 in Calm     48% 0.00 in meteobridge W/m2
16:54 42.6 °F 24.3 °F 30.16 in Calm     48% 0.00 in meteobridge W/m2
16:59 42.6 °F 24.3 °F 30.16 in Calm     48% 0.00 in meteobridge W/m2
17:04 42.6 °F 24.3 °F 30.16 in Calm     48% 0.00 in meteobridge W/m2
17:09 42.4 °F 24.1 °F 30.17 in Calm     48% 0.00 in meteobridge W/m2
17:14 42.4 °F 24.1 °F 30.17 in Calm     48% 0.00 in meteobridge W/m2
17:19 42.4 °F 24.6 °F 30.17 in Calm     49% 0.00 in meteobridge W/m2
17:24 42.3 °F 24.4 °F 30.18 in Calm     49% 0.00 in meteobridge W/m2
17:29 42.3 °F 23.9 °F 30.17 in Calm     48% 0.00 in meteobridge W/m2
17:34 42.3 °F 24.4 °F 30.17 in Calm     49% 0.00 in meteobridge W/m2
17:39 42.3 °F 24.4 °F 30.17 in Calm     49% 0.00 in meteobridge W/m2
17:44 42.3 °F 24.4 °F 30.17 in Calm     49% 0.00 in meteobridge W/m2
17:49 42.3 °F 24.4 °F 30.17 in Calm     49% 0.00 in meteobridge W/m2
17:54 42.3 °F 23.9 °F 30.17 in Calm     48% 0.00 in meteobridge W/m2
17:59 42.3 °F 23.9 °F 30.17 in Calm     48% 0.00 in meteobridge W/m2
18:04 42.3 °F 23.9 °F 30.18 in Calm     48% 0.00 in meteobridge W/m2
18:09 42.3 °F 23.9 °F 30.18 in Calm     48% 0.00 in meteobridge W/m2
18:14 42.4 °F 24.1 °F 30.17 in Calm     48% 0.00 in meteobridge W/m2
18:19 42.4 °F 24.1 °F 30.17 in Calm     48% 0.00 in meteobridge W/m2
18:24 42.4 °F 24.1 °F 30.17 in Calm     48% 0.00 in meteobridge W/m2
18:29 42.4 °F 24.1 °F 30.17 in Calm     48% 0.00 in meteobridge W/m2
18:34 42.4 °F 24.1 °F 30.17 in Calm     48% 0.00 in meteobridge W/m2
18:39 42.4 °F 24.1 °F 30.17 in Calm     48% 0.00 in meteobridge W/m2
18:44 42.4 °F 24.1 °F 30.17 in Calm     48% 0.00 in meteobridge W/m2
18:49 42.6 °F 24.3 °F 30.18 in Calm     48% 0.00 in meteobridge W/m2
18:54 42.6 °F 24.3 °F 30.18 in Calm     48% 0.00 in meteobridge W/m2
18:59 43.0 °F 24.1 °F 30.18 in Calm     47% 0.00 in meteobridge W/m2
19:04 43.2 °F 24.3 °F 30.18 in Calm     47% 0.00 in meteobridge W/m2
19:09 43.2 °F 24.3 °F 30.18 in Calm     47% 0.00 in meteobridge W/m2
19:14 43.2 °F 24.3 °F 30.18 in Calm     47% 0.00 in meteobridge W/m2
19:19 43.3 °F 24.4 °F 30.18 in Calm     47% 0.00 in meteobridge W/m2
19:24 43.3 °F 24.4 °F 30.18 in Calm     47% 0.00 in meteobridge W/m2
19:29 43.3 °F 24.4 °F 30.18 in Calm     47% 0.00 in meteobridge W/m2
19:34 43.3 °F 24.4 °F 30.18 in Calm     47% 0.00 in meteobridge W/m2
19:39 43.3 °F 24.4 °F 30.19 in Calm     47% 0.00 in meteobridge W/m2
19:44 43.3 °F 24.4 °F 30.18 in Calm     47% 0.00 in meteobridge W/m2
19:49 43.3 °F 24.4 °F 30.18 in Calm     47% 0.00 in meteobridge W/m2
19:54 43.3 °F 24.4 °F 30.18 in Calm     47% 0.00 in meteobridge W/m2
19:59 43.3 °F 24.4 °F 30.18 in Calm     47% 0.00 in meteobridge W/m2
20:04 43.3 °F 24.4 °F 30.18 in Calm     47% 0.00 in meteobridge W/m2
20:09 43.3 °F 24.4 °F 30.18 in Calm     47% 0.00 in meteobridge W/m2
20:14 43.3 °F 24.4 °F 30.18 in Calm     47% 0.00 in meteobridge W/m2
20:19 43.5 °F 24.6 °F 30.19 in Calm     47% 0.00 in meteobridge W/m2
20:24 43.5 °F 24.6 °F 30.18 in Calm     47% 0.00 in meteobridge W/m2
20:29 43.5 °F 24.6 °F 30.19 in Calm     47% 0.00 in meteobridge W/m2
20:34 43.5 °F 24.6 °F 30.19 in Calm     47% 0.00 in meteobridge W/m2
20:39 43.5 °F 24.6 °F 30.18 in Calm     47% 0.00 in meteobridge W/m2
20:44 43.5 °F 24.6 °F 30.18 in Calm     47% 0.00 in meteobridge W/m2
20:49 43.5 °F 24.6 °F 30.18 in Calm     47% 0.00 in meteobridge W/m2
20:54 43.5 °F 24.6 °F 30.18 in Calm     47% 0.00 in meteobridge W/m2
20:59 43.5 °F 24.6 °F 30.18 in Calm     47% 0.00 in meteobridge W/m2
21:04 43.7 °F 24.8 °F 30.18 in Calm     47% 0.00 in meteobridge W/m2
21:09 43.7 °F 24.8 °F 30.17 in Calm     47% 0.00 in meteobridge W/m2
21:14 43.7 °F 24.8 °F 30.17 in Calm     47% 0.00 in meteobridge W/m2
21:19 43.7 °F 24.8 °F 30.17 in Calm     47% 0.00 in meteobridge W/m2
21:24 43.7 °F 24.8 °F 30.18 in Calm     47% 0.00 in meteobridge W/m2
21:29 43.9 °F 25.0 °F 30.18 in Calm     47% 0.00 in meteobridge W/m2
21:34 43.9 °F 25.0 °F 30.18 in Calm     47% 0.00 in meteobridge W/m2
21:39 44.1 °F 24.6 °F 30.18 in Calm     46% 0.00 in meteobridge W/m2
21:44 44.1 °F 24.6 °F 30.18 in Calm     46% 0.00 in meteobridge W/m2
21:49 44.1 °F 24.6 °F 30.18 in Calm     46% 0.00 in meteobridge W/m2
21:54 44.2 °F 24.8 °F 30.18 in Calm     46% 0.00 in meteobridge W/m2
21:59 44.2 °F 24.8 °F 30.18 in Calm     46% 0.00 in meteobridge W/m2
22:04 44.2 °F 24.8 °F 30.18 in Calm     46% 0.00 in meteobridge W/m2
22:09 44.4 °F 25.0 °F 30.18 in Calm     46% 0.00 in meteobridge W/m2
22:14 44.4 °F 25.0 °F 30.18 in Calm     46% 0.00 in meteobridge W/m2
22:19 44.4 °F 25.0 °F 30.19 in Calm     46% 0.00 in meteobridge W/m2
22:24 44.6 °F 25.2 °F 30.18 in Calm     46% 0.00 in meteobridge W/m2
22:29 44.4 °F 25.0 °F 30.19 in Calm     46% 0.00 in meteobridge W/m2
22:34 44.4 °F 25.0 °F 30.18 in Calm     46% 0.00 in meteobridge W/m2
22:39 44.4 °F 25.0 °F 30.19 in Calm     46% 0.00 in meteobridge W/m2
22:44 44.4 °F 25.0 °F 30.18 in Calm     46% 0.00 in meteobridge W/m2
22:49 44.4 °F 25.0 °F 30.18 in Calm     46% 0.00 in meteobridge W/m2
22:54 44.2 °F 24.8 °F 30.18 in Calm     46% 0.00 in meteobridge W/m2
22:59 44.2 °F 24.8 °F 30.18 in Calm     46% 0.00 in meteobridge W/m2
23:04 44.4 °F 25.0 °F 30.18 in Calm     46% 0.00 in meteobridge W/m2
23:09 44.6 °F 25.2 °F 30.18 in Calm     46% 0.00 in meteobridge W/m2
23:14 44.6 °F 25.2 °F 30.19 in Calm     46% 0.00 in meteobridge W/m2
23:19 44.8 °F 25.3 °F 30.18 in Calm     46% 0.01 in meteobridge W/m2
23:24 44.6 °F 25.2 °F 30.18 in Calm     46% 0.01 in meteobridge W/m2
23:29 44.4 °F 25.0 °F 30.18 in Calm     46% 0.01 in meteobridge W/m2
23:34 44.4 °F 25.0 °F 30.18 in Calm     46% 0.01 in meteobridge W/m2
23:39 44.6 °F 25.2 °F 30.18 in Calm     46% 0.01 in meteobridge W/m2
23:44 44.8 °F 25.3 °F 30.18 in Calm     46% 0.01 in meteobridge W/m2
23:49 44.8 °F 25.3 °F 30.19 in Calm     46% 0.01 in meteobridge W/m2
23:54 44.8 °F 25.3 °F 30.19 in Calm     46% 0.01 in meteobridge W/m2
23:59 44.8 °F 25.3 °F 30.19 in Calm     46% 0.01 in meteobridge W/m2
EllijayWeather
Compliments of Weather Underground - 2.5 mb